Time;durP1;ratioP1;P1;durP2;ratioP2;P2;SDS_P1;SDS_P2;PMS_P1;PMS_P2;Temp;Humidity;BMP_temperature;BMP_pressure;BME280_temperature;BME280_humidity;BME280_pressure;Samples;Min_cycle;Max_cycle;Signal;HPM_P1;HPM_P2
2023/12/30 00:00:23;;;;;;;4.88;2.03;;;7.60;99.90;;;;;;5061143;28;20049;-75
2023/12/30 00:02:51;;;;;;;6.18;1.15;;;7.50;99.90;;;;;;5048772;28;20041;-75
2023/12/30 00:05:18;;;;;;;6.70;2.60;;;7.50;99.90;;;;;;5056573;28;20114;-74
2023/12/30 00:07:45;;;;;;;5.93;1.35;;;7.40;99.90;;;;;;5066302;28;20048;-75
2023/12/30 00:10:12;;;;;;;3.58;1.02;;;7.40;99.90;;;;;;5062566;28;20048;-75
2023/12/30 00:12:39;;;;;;;4.47;1.23;;;7.50;99.90;;;;;;5062551;28;20044;-75
2023/12/30 00:15:06;;;;;;;12.13;1.90;;;7.40;99.90;;;;;;5059334;28;20411;-76
2023/12/30 00:17:33;;;;;;;10.02;1.30;;;7.50;99.90;;;;;;5064662;28;20056;-76
2023/12/30 00:20:00;;;;;;;3.60;1.27;;;7.50;99.90;;;;;;5052889;28;20051;-75
2023/12/30 00:22:27;;;;;;;6.60;1.23;;;7.50;99.90;;;;;;5062973;28;20051;-75
2023/12/30 00:24:54;;;;;;;6.22;1.38;;;7.50;99.90;;;;;;5061693;28;20503;-75
2023/12/30 00:27:21;;;;;;;7.97;1.30;;;7.50;99.90;;;;;;5066092;28;20045;-75
2023/12/30 00:29:49;;;;;;;7.00;1.20;;;7.50;99.90;;;;;;5068622;28;20079;-75
2023/12/30 00:32:17;;;;;;;8.38;1.70;;;7.50;99.90;;;;;;5069477;28;20239;-75
2023/12/30 00:34:44;;;;;;;5.53;1.20;;;7.50;99.90;;;;;;5063155;28;20063;-74
2023/12/30 00:37:13;;;;;;;6.00;1.25;;;7.40;99.90;;;;;;5065337;28;20048;-74
2023/12/30 00:39:41;;;;;;;7.90;2.45;;;7.40;99.90;;;;;;5061105;28;20071;-74
2023/12/30 00:42:08;;;;;;;5.45;1.10;;;7.40;99.90;;;;;;5063815;28;20045;-75
2023/12/30 00:44:34;;;;;;;8.70;1.15;;;7.50;99.90;;;;;;5068105;28;20052;-75
2023/12/30 00:47:01;;;;;;;4.88;1.38;;;7.40;99.90;;;;;;5068031;28;20036;-75
2023/12/30 00:49:28;;;;;;;12.18;1.85;;;7.40;99.90;;;;;;5066992;28;20171;-76
2023/12/30 00:51:55;;;;;;;15.60;1.65;;;7.40;99.90;;;;;;5060682;28;20091;-75
2023/12/30 00:54:22;;;;;;;12.52;1.40;;;7.40;99.90;;;;;;5066149;28;20090;-74
2023/12/30 00:56:49;;;;;;;8.45;1.13;;;7.40;99.90;;;;;;5066958;28;20044;-74
2023/12/30 00:59:16;;;;;;;6.65;1.38;;;7.40;99.90;;;;;;5065516;28;20122;-74
2023/12/30 01:01:43;;;;;;;3.55;1.52;;;7.40;99.90;;;;;;5068150;28;20041;-74
2023/12/30 01:04:12;;;;;;;5.68;2.08;;;7.40;99.90;;;;;;5064560;28;20059;-74
2023/12/30 01:06:39;;;;;;;6.15;1.13;;;7.40;99.90;;;;;;5066715;28;20060;-74
2023/12/30 01:09:06;;;;;;;7.05;1.50;;;7.40;99.90;;;;;;5056000;28;20068;-74
2023/12/30 01:11:32;;;;;;;4.78;1.08;;;7.40;99.90;;;;;;5060562;28;20068;-74
2023/12/30 01:13:59;;;;;;;10.82;1.60;;;7.40;99.90;;;;;;5065560;28;20114;-74
2023/12/30 01:16:26;;;;;;;7.80;1.17;;;7.40;99.90;;;;;;5063886;28;20051;-74
2023/12/30 01:18:53;;;;;;;8.60;1.35;;;7.40;99.90;;;;;;5063043;28;20106;-74
2023/12/30 01:21:20;;;;;;;8.50;1.00;;;7.40;99.90;;;;;;5060077;28;20072;-74
2023/12/30 01:23:47;;;;;;;10.18;1.27;;;7.40;99.90;;;;;;5063923;28;20068;-74
2023/12/30 01:26:14;;;;;;;9.77;1.20;;;7.40;99.90;;;;;;5067917;28;20040;-74
2023/12/30 01:28:41;;;;;;;5.40;1.17;;;7.40;99.90;;;;;;5067341;28;20128;-75
2023/12/30 01:31:07;;;;;;;4.93;1.35;;;7.40;99.90;;;;;;5068877;28;20503;-75
2023/12/30 01:33:34;;;;;;;12.88;4.05;;;7.40;99.90;;;;;;5066248;28;20087;-74
2023/12/30 01:36:01;;;;;;;8.10;1.55;;;7.40;99.90;;;;;;5066158;28;20044;-74
2023/12/30 01:38:28;;;;;;;6.20;2.00;;;7.30;99.90;;;;;;5066189;28;20499;-77
2023/12/30 01:40:55;;;;;;;8.57;1.10;;;7.30;99.90;;;;;;5055894;28;20510;-76
2023/12/30 01:43:31;;;;;;;11.23;1.48;;;7.30;99.90;;;;;;5066340;28;20454;-74
2023/12/30 01:46:07;;;;;;;10.55;1.50;;;7.30;99.90;;;;;;5061725;28;20069;-74
2023/12/30 01:48:34;;;;;;;7.60;1.08;;;7.30;99.90;;;;;;5072623;28;20398;-73
2023/12/30 01:51:02;;;;;;;7.72;1.00;;;7.30;99.90;;;;;;5074441;28;20052;-74
2023/12/30 01:53:32;;;;;;;5.97;1.42;;;7.30;99.90;;;;;;5069206;28;20098;-73
2023/12/30 01:55:59;;;;;;;14.00;2.13;;;7.30;99.90;;;;;;5063291;28;20084;-74
2023/12/30 01:58:26;;;;;;;7.47;1.70;;;7.30;99.90;;;;;;5065228;28;20045;-74
2023/12/30 02:00:53;;;;;;;5.57;1.52;;;7.30;99.90;;;;;;5065561;28;20086;-74
2023/12/30 02:03:23;;;;;;;5.18;1.15;;;7.30;99.90;;;;;;5064345;28;20147;-74
2023/12/30 02:05:50;;;;;;;3.92;1.10;;;7.30;99.90;;;;;;5061099;28;20466;-74
2023/12/30 02:08:17;;;;;;;8.52;1.58;;;7.30;99.90;;;;;;5056884;28;20175;-75
2023/12/30 02:10:44;;;;;;;8.18;1.48;;;7.30;99.90;;;;;;5063144;28;20040;-73
2023/12/30 02:13:11;;;;;;;6.88;1.55;;;7.20;99.90;;;;;;5061410;28;20044;-74
2023/12/30 02:15:37;;;;;;;5.72;2.30;;;7.20;99.90;;;;;;5062787;28;20445;-73
2023/12/30 02:18:04;;;;;;;14.13;2.13;;;7.20;99.90;;;;;;5065453;28;20049;-73
2023/12/30 02:20:32;;;;;;;7.78;1.23;;;7.20;99.90;;;;;;5058271;28;20053;-75
2023/12/30 02:22:59;;;;;;;7.20;1.73;;;7.10;99.90;;;;;;5056693;28;20107;-73
2023/12/30 02:25:26;;;;;;;6.88;1.63;;;7.10;99.90;;;;;;5064130;28;20094;-73
2023/12/30 02:27:53;;;;;;;4.38;1.50;;;7.00;99.90;;;;;;5057372;28;20106;-73
2023/12/30 02:30:23;;;;;;;9.75;2.67;;;7.00;99.90;;;;;;5065072;28;20419;-73
2023/12/30 02:32:51;;;;;;;11.82;1.60;;;6.90;99.90;;;;;;5057910;28;20045;-74
2023/12/30 02:35:18;;;;;;;8.13;1.73;;;6.90;99.90;;;;;;5059242;28;20052;-73
2023/12/30 02:37:45;;;;;;;10.68;2.75;;;6.80;99.90;;;;;;5062444;28;20041;-74
2023/12/30 02:40:11;;;;;;;3.17;1.63;;;6.90;99.90;;;;;;5057904;28;20515;-73
2023/12/30 02:42:39;;;;;;;12.30;2.22;;;6.90;99.90;;;;;;5060618;28;20064;-72
2023/12/30 02:45:06;;;;;;;4.97;1.13;;;6.80;99.90;;;;;;5062913;28;20037;-74
2023/12/30 02:47:33;;;;;;;16.10;2.03;;;6.80;99.90;;;;;;5061366;28;20048;-74
2023/12/30 02:50:00;;;;;;;6.20;1.20;;;6.80;99.90;;;;;;5060262;28;20062;-73
2023/12/30 02:52:27;;;;;;;7.55;1.63;;;6.80;99.90;;;;;;5064572;28;20626;-74
2023/12/30 02:54:54;;;;;;;9.55;1.58;;;6.80;99.90;;;;;;5059538;28;20060;-75
2023/12/30 02:57:23;;;;;;;4.30;1.55;;;6.80;99.90;;;;;;5063068;28;20070;-74
2023/12/30 02:59:49;;;;;;;5.70;1.52;;;6.80;99.90;;;;;;5069479;28;20040;-74
2023/12/30 03:02:16;;;;;;;13.23;1.95;;;6.90;99.90;;;;;;5060075;28;20084;-75
2023/12/30 03:04:43;;;;;;;15.27;2.17;;;6.90;99.90;;;;;;5068975;28;20416;-75
2023/12/30 03:07:11;;;;;;;11.75;1.73;;;6.90;99.90;;;;;;5066561;28;20044;-75
2023/12/30 03:09:37;;;;;;;5.75;1.88;;;6.90;99.90;;;;;;5069616;28;20223;-74
2023/12/30 03:12:05;;;;;;;8.40;1.55;;;6.90;99.90;;;;;;5068228;28;20055;-75
2023/12/30 03:14:32;;;;;;;11.88;1.95;;;6.90;99.90;;;;;;5063913;28;20548;-74
2023/12/30 03:16:58;;;;;;;7.05;1.30;;;7.00;99.90;;;;;;5066119;28;20106;-74
2023/12/30 03:19:26;;;;;;;14.15;1.83;;;7.00;99.90;;;;;;5063320;28;20051;-74
2023/12/30 03:21:54;;;;;;;9.35;1.70;;;7.00;99.90;;;;;;5068287;28;20052;-74
2023/12/30 03:24:21;;;;;;;9.45;1.33;;;7.00;99.90;;;;;;5061052;28;20080;-75
2023/12/30 03:26:47;;;;;;;10.80;1.85;;;7.00;99.90;;;;;;5066273;28;20267;-74
2023/12/30 03:29:14;;;;;;;8.50;1.80;;;7.00;99.90;;;;;;5067624;28;20423;-74
2023/12/30 03:31:41;;;;;;;12.48;2.58;;;7.00;99.90;;;;;;5057122;28;20056;-74
2023/12/30 03:34:08;;;;;;;9.82;2.40;;;7.00;99.90;;;;;;5065793;28;20049;-74
2023/12/30 03:36:36;;;;;;;6.57;1.67;;;7.10;99.90;;;;;;5068862;28;20558;-74
2023/12/30 03:39:04;;;;;;;11.35;1.60;;;7.00;99.90;;;;;;5062127;28;20485;-74
2023/12/30 03:41:30;;;;;;;9.05;1.45;;;7.10;99.90;;;;;;5080664;28;20076;-74
2023/12/30 03:43:57;;;;;;;14.07;2.40;;;7.10;99.90;;;;;;5067068;28;20438;-71
2023/12/30 03:46:24;;;;;;;12.35;1.92;;;7.10;99.90;;;;;;5068784;28;20106;-74
2023/12/30 03:48:51;;;;;;;8.75;1.58;;;7.10;99.90;;;;;;5069446;28;20271;-74
2023/12/30 03:51:18;;;;;;;8.90;1.10;;;7.20;99.90;;;;;;5066539;28;20060;-73
2023/12/30 03:53:45;;;;;;;9.88;1.83;;;7.20;99.90;;;;;;5059957;28;20901;-75
2023/12/30 03:56:12;;;;;;;15.63;1.85;;;7.20;99.90;;;;;;5068077;28;20059;-74
2023/12/30 03:58:39;;;;;;;11.18;2.38;;;7.20;99.90;;;;;;5067589;28;20131;-74
2023/12/30 04:01:06;;;;;;;21.98;2.53;;;7.30;99.90;;;;;;5068221;28;20543;-73
2023/12/30 04:03:33;;;;;;;10.50;1.80;;;7.30;99.90;;;;;;5068914;28;20080;-73
2023/12/30 04:06:00;;;;;;;12.20;2.63;;;7.30;99.90;;;;;;5063272;28;20577;-73
2023/12/30 04:08:26;;;;;;;9.43;1.63;;;7.40;99.90;;;;;;5054594;28;20052;-74
2023/12/30 04:10:53;;;;;;;15.00;2.72;;;7.40;99.90;;;;;;5065878;28;20687;-74
2023/12/30 04:13:20;;;;;;;9.48;1.60;;;7.40;99.90;;;;;;5056100;28;20047;-76
2023/12/30 04:15:47;;;;;;;9.95;2.42;;;7.50;99.90;;;;;;5062739;28;20056;-75
2023/12/30 04:18:14;;;;;;;11.00;1.58;;;7.50;99.90;;;;;;5066414;28;20040;-73
2023/12/30 04:20:41;;;;;;;12.85;3.00;;;7.50;99.90;;;;;;5066712;28;20479;-73
2023/12/30 04:23:08;;;;;;;10.13;1.45;;;7.50;99.90;;;;;;5062299;28;20575;-73
2023/12/30 04:25:35;;;;;;;18.02;2.42;;;7.50;99.90;;;;;;5066212;28;20122;-74
2023/12/30 04:28:02;;;;;;;10.07;1.60;;;7.50;99.90;;;;;;5066505;28;20060;-73
2023/12/30 04:30:29;;;;;;;14.00;2.20;;;7.50;99.90;;;;;;5060032;28;20045;-74
2023/12/30 04:32:56;;;;;;;13.80;2.05;;;7.50;99.90;;;;;;5066790;28;20040;-74
2023/12/30 04:35:23;;;;;;;9.65;1.60;;;7.60;99.90;;;;;;5066840;28;20070;-74
2023/12/30 04:37:50;;;;;;;5.47;1.75;;;7.60;99.90;;;;;;5066354;28;20105;-74
2023/12/30 04:40:16;;;;;;;15.30;2.22;;;7.60;99.90;;;;;;5065405;28;20075;-74
2023/12/30 04:42:44;;;;;;;5.38;2.45;;;7.60;99.90;;;;;;5067215;28;20055;-74
2023/12/30 04:45:12;;;;;;;12.57;1.83;;;7.60;99.90;;;;;;5058881;28;20457;-74
2023/12/30 04:47:39;;;;;;;11.25;2.30;;;7.60;99.90;;;;;;5055280;28;20147;-74
2023/12/30 04:50:07;;;;;;;7.95;2.47;;;7.60;99.90;;;;;;5061280;28;20059;-74
2023/12/30 04:52:34;;;;;;;11.68;2.00;;;7.70;99.90;;;;;;5058324;28;20438;-74
2023/12/30 04:55:02;;;;;;;8.80;2.08;;;7.70;99.90;;;;;;5059997;28;20267;-74
2023/12/30 04:57:29;;;;;;;9.40;1.70;;;7.70;99.90;;;;;;5066581;28;20048;-74
2023/12/30 04:59:57;;;;;;;11.32;2.20;;;7.70;99.90;;;;;;5063404;28;20048;-74
2023/12/30 05:02:24;;;;;;;13.15;1.75;;;7.70;99.90;;;;;;5066738;28;20056;-75
2023/12/30 05:04:51;;;;;;;11.65;2.13;;;7.80;99.90;;;;;;5062527;28;20052;-75
2023/12/30 05:07:18;;;;;;;17.38;4.07;;;7.80;99.90;;;;;;5066003;28;20411;-75
2023/12/30 05:09:45;;;;;;;13.73;1.67;;;7.80;99.90;;;;;;5055909;28;20052;-75
2023/12/30 05:12:11;;;;;;;19.38;2.45;;;7.80;99.90;;;;;;5065112;28;20052;-74
2023/12/30 05:14:38;;;;;;;13.30;1.63;;;7.80;99.90;;;;;;5062897;28;20045;-74
2023/12/30 05:17:05;;;;;;;17.52;2.55;;;7.90;99.90;;;;;;5066222;28;20118;-74
2023/12/30 05:19:32;;;;;;;12.95;2.25;;;7.90;99.90;;;;;;5064535;28;20040;-74
2023/12/30 05:21:59;;;;;;;9.63;2.17;;;7.80;99.90;;;;;;5064055;28;20128;-74
2023/12/30 05:24:26;;;;;;;19.98;2.70;;;7.80;99.90;;;;;;5063136;28;20131;-74
2023/12/30 05:26:52;;;;;;;13.57;1.83;;;7.80;99.90;;;;;;5064583;28;20044;-74
2023/12/30 05:29:20;;;;;;;12.90;2.05;;;7.80;99.90;;;;;;5060695;28;20041;-74
2023/12/30 05:31:47;;;;;;;8.75;1.50;;;7.80;99.90;;;;;;5059141;28;20066;-74
2023/12/30 05:34:15;;;;;;;19.02;2.47;;;7.80;99.90;;;;;;5062163;28;20044;-74
2023/12/30 05:36:41;;;;;;;9.82;1.95;;;7.70;99.90;;;;;;5064880;28;20048;-75
2023/12/30 05:39:08;;;;;;;15.68;2.10;;;7.70;99.90;;;;;;5063940;28;20130;-74
2023/12/30 05:41:35;;;;;;;13.50;2.45;;;7.70;99.90;;;;;;5064564;28;20078;-74
2023/12/30 05:44:02;;;;;;;20.38;3.22;;;7.70;99.90;;;;;;5065362;28;20044;-74
2023/12/30 05:46:30;;;;;;;13.63;2.20;;;7.70;99.90;;;;;;5064236;28;20040;-76
2023/12/30 05:48:57;;;;;;;12.05;2.33;;;7.70;99.90;;;;;;5065621;28;20041;-73
2023/12/30 05:51:24;;;;;;;16.67;3.05;;;7.70;99.90;;;;;;5066565;28;20121;-75
2023/12/30 05:53:51;;;;;;;9.82;2.58;;;7.70;99.90;;;;;;5066146;28;20048;-74
2023/12/30 05:56:24;;;;;;;14.32;2.17;;;7.70;99.90;;;;;;5065019;28;20557;-74
2023/12/30 05:58:55;;;;;;;14.48;2.85;;;7.70;99.90;;;;;;5064173;28;20179;-74
2023/12/30 06:01:21;;;;;;;15.20;2.05;;;7.70;99.90;;;;;;5062257;28;20329;-74
2023/12/30 06:03:48;;;;;;;17.85;3.13;;;7.80;99.90;;;;;;5064086;28;20499;-74
2023/12/30 06:06:16;;;;;;;22.27;2.85;;;8.00;99.90;;;;;;5054488;28;20091;-74
2023/12/30 06:08:43;;;;;;;12.68;1.75;;;7.80;99.90;;;;;;5064535;28;20044;-74
2023/12/30 06:11:11;;;;;;;18.70;2.20;;;7.90;99.90;;;;;;5063650;28;20139;-74
2023/12/30 06:13:41;;;;;;;15.30;2.35;;;8.00;99.90;;;;;;5063444;28;20165;-74
2023/12/30 06:16:10;;;;;;;15.73;2.10;;;8.00;99.90;;;;;;5067296;28;20093;-74
2023/12/30 06:18:37;;;;;;;12.52;1.98;;;8.10;99.90;;;;;;5064718;28;20045;-75
2023/12/30 06:21:04;;;;;;;20.20;3.05;;;8.10;99.90;;;;;;5064340;28;20048;-74
2023/12/30 06:23:32;;;;;;;13.45;2.30;;;8.10;99.90;;;;;;5059628;28;20060;-74
2023/12/30 06:26:00;;;;;;;21.70;3.22;;;8.20;99.90;;;;;;5066583;28;20049;-74
2023/12/30 06:28:27;;;;;;;20.60;2.55;;;8.20;99.90;;;;;;5061100;28;20262;-75
2023/12/30 06:30:55;;;;;;;14.13;2.75;;;8.30;99.90;;;;;;5058606;28;20357;-75
2023/12/30 06:33:22;;;;;;;16.05;2.70;;;8.30;99.90;;;;;;5054175;28;20419;-75
2023/12/30 06:35:49;;;;;;;14.82;3.03;;;8.40;99.90;;;;;;5059764;28;20503;-75
2023/12/30 06:38:16;;;;;;;18.98;4.10;;;8.40;99.90;;;;;;5065912;28;20052;-75
2023/12/30 06:40:45;;;;;;;20.98;2.55;;;8.40;99.90;;;;;;5065576;28;20052;-75
2023/12/30 06:43:13;;;;;;;23.52;4.28;;;8.50;99.90;;;;;;5069729;28;20464;-74
2023/12/30 06:45:39;;;;;;;12.48;2.13;;;8.50;99.90;;;;;;5068897;28;20052;-74
2023/12/30 06:48:06;;;;;;;23.92;3.30;;;8.60;99.90;;;;;;5062079;28;20175;-75
2023/12/30 06:50:33;;;;;;;15.60;2.80;;;8.70;99.90;;;;;;5059192;28;20044;-74
2023/12/30 06:53:00;;;;;;;22.38;2.90;;;8.70;99.90;;;;;;5064714;28;20472;-74
2023/12/30 06:55:28;;;;;;;20.80;2.95;;;8.70;99.90;;;;;;5068683;28;20048;-74
2023/12/30 06:58:08;;;;;;;18.52;2.70;;;8.70;99.90;;;;;;5057354;28;20264;-75
2023/12/30 07:00:35;;;;;;;19.48;2.83;;;8.70;99.90;;;;;;5060969;28;20143;-73
2023/12/30 07:03:02;;;;;;;24.10;2.97;;;8.70;99.90;;;;;;5055467;28;20103;-75
2023/12/30 07:05:35;;;;;;;18.65;4.07;;;8.80;99.90;;;;;;5066530;28;20041;-75
2023/12/30 07:08:03;;;;;;;19.58;2.83;;;8.80;99.90;;;;;;5068809;28;20048;-73
2023/12/30 07:10:29;;;;;;;18.05;2.85;;;8.80;99.90;;;;;;5068440;28;20461;-75
2023/12/30 07:12:56;;;;;;;15.52;3.08;;;8.80;99.90;;;;;;5067910;28;20040;-74
2023/12/30 07:15:23;;;;;;;18.42;2.78;;;8.80;99.90;;;;;;5067229;28;20467;-75
2023/12/30 07:17:50;;;;;;;15.85;3.13;;;8.80;99.90;;;;;;5061516;28;20533;-74
2023/12/30 07:20:17;;;;;;;16.67;2.80;;;8.80;99.90;;;;;;5064651;28;20047;-74
2023/12/30 07:22:44;;;;;;;27.30;4.25;;;8.80;99.90;;;;;;5069552;28;20285;-74
2023/12/30 07:25:11;;;;;;;12.13;2.75;;;8.80;99.90;;;;;;5064652;28;20044;-75
2023/12/30 07:27:38;;;;;;;19.52;3.28;;;8.70;99.90;;;;;;5062572;28;20100;-75
2023/12/30 07:30:05;;;;;;;16.92;1.88;;;8.70;99.90;;;;;;5058675;28;20417;-75
2023/12/30 07:32:32;;;;;;;20.35;2.78;;;8.70;99.90;;;;;;5060729;28;20083;-74
2023/12/30 07:34:59;;;;;;;14.88;3.33;;;8.70;99.90;;;;;;5070849;28;20052;-75
2023/12/30 07:37:27;;;;;;;13.90;2.70;;;8.70;99.90;;;;;;5067614;28;20056;-75
2023/12/30 07:39:54;;;;;;;27.92;3.22;;;8.70;99.90;;;;;;5060722;28;20075;-75
2023/12/30 07:42:22;;;;;;;15.52;3.33;;;8.70;99.90;;;;;;5068965;28;20052;-75
2023/12/30 07:44:51;;;;;;;13.02;2.90;;;8.80;99.90;;;;;;5067079;28;20534;-75
2023/12/30 07:47:18;;;;;;;18.17;2.90;;;8.80;99.90;;;;;;5068202;28;20044;-75
2023/12/30 07:49:45;;;;;;;23.25;3.35;;;8.80;99.90;;;;;;5065692;28;20082;-73
2023/12/30 07:52:12;;;;;;;13.73;2.28;;;8.80;99.90;;;;;;5065502;28;20134;-74
2023/12/30 07:54:39;;;;;;;9.88;2.03;;;8.80;99.90;;;;;;5067089;28;20487;-74
2023/12/30 07:57:06;;;;;;;20.65;2.60;;;8.90;99.90;;;;;;5067025;28;20072;-75
2023/12/30 07:59:33;;;;;;;17.15;2.03;;;8.90;99.90;;;;;;5067107;28;20566;-76
2023/12/30 08:01:59;;;;;;;16.52;2.28;;;8.90;99.90;;;;;;5068660;28;20510;-75
2023/12/30 08:04:26;;;;;;;19.77;2.45;;;8.90;99.90;;;;;;5067709;28;20127;-76
2023/12/30 08:06:53;;;;;;;14.82;2.38;;;8.90;99.90;;;;;;5067799;28;20041;-75
2023/12/30 08:09:22;;;;;;;9.15;2.33;;;8.90;99.90;;;;;;5068122;28;20052;-74
2023/12/30 08:11:49;;;;;;;20.33;2.47;;;8.90;99.90;;;;;;5067272;28;20052;-75
2023/12/30 08:14:28;;;;;;;14.55;2.38;;;8.90;99.90;;;;;;5069462;28;20044;-75
2023/12/30 08:16:55;;;;;;;13.07;2.40;;;9.00;99.90;;;;;;5071057;28;20068;-75
2023/12/30 08:19:22;;;;;;;12.23;2.47;;;8.90;99.90;;;;;;5063679;28;20045;-75
2023/12/30 08:21:49;;;;;;;21.85;2.60;;;9.00;99.90;;;;;;5061482;28;20048;-75
2023/12/30 08:24:19;;;;;;;16.65;2.10;;;9.00;99.90;;;;;;5058238;28;20044;-76
2023/12/30 08:26:46;;;;;;;10.63;2.85;;;9.10;99.90;;;;;;5058364;28;21259;-76
2023/12/30 08:29:14;;;;;;;12.20;2.83;;;9.10;99.90;;;;;;5069354;28;20254;-76
2023/12/30 08:31:47;;;;;;;22.20;4.97;;;9.10;99.90;;;;;;5064680;28;20477;-74
2023/12/30 08:34:14;;;;;;;18.65;2.42;;;9.20;99.90;;;;;;5064397;28;20068;-74
2023/12/30 08:36:42;;;;;;;21.33;2.78;;;9.20;99.90;;;;;;5061828;28;20052;-75
2023/12/30 08:39:10;;;;;;;12.95;2.75;;;9.30;99.90;;;;;;5063083;28;20045;-75
2023/12/30 08:41:37;;;;;;;12.18;2.10;;;9.30;99.90;;;;;;5059082;28;20503;-75
2023/12/30 08:44:04;;;;;;;18.15;3.22;;;9.30;99.90;;;;;;5067019;28;20094;-75
2023/12/30 08:46:30;;;;;;;20.63;3.13;;;9.40;99.90;;;;;;5068183;28;20102;-76
2023/12/30 08:48:59;;;;;;;24.15;3.35;;;9.50;99.90;;;;;;5063191;28;20057;-75
2023/12/30 08:51:29;;;;;;;13.45;2.78;;;9.50;99.90;;;;;;5066238;28;20041;-76
2023/12/30 08:53:56;;;;;;;17.70;2.70;;;9.50;99.90;;;;;;5062683;28;20118;-75
2023/12/30 08:56:24;;;;;;;12.18;3.03;;;9.50;99.90;;;;;;5054631;28;20534;-75
2023/12/30 08:58:51;;;;;;;10.45;2.60;;;9.50;99.90;;;;;;5063879;28;20051;-74
2023/12/30 09:01:18;;;;;;;18.67;2.47;;;9.50;99.90;;;;;;5061237;28;20040;-75
2023/12/30 09:03:45;;;;;;;23.45;3.53;;;9.50;99.90;;;;;;5066315;28;20105;-76
2023/12/30 09:06:12;;;;;;;23.10;2.75;;;9.60;99.90;;;;;;5065233;28;20725;-76
2023/12/30 09:08:41;;;;;;;20.88;2.47;;;9.60;99.90;;;;;;5060997;28;20079;-76
2023/12/30 09:11:20;;;;;;;14.20;2.42;;;9.70;99.90;;;;;;5067215;28;20414;-75
2023/12/30 09:13:48;;;;;;;26.27;3.90;;;9.80;99.90;;;;;;5068227;28;20659;-75
2023/12/30 09:16:15;;;;;;;18.40;2.65;;;9.80;99.90;;;;;;5067278;28;20072;-74
2023/12/30 09:18:42;;;;;;;17.25;2.47;;;9.90;99.90;;;;;;5066430;28;20056;-75
2023/12/30 09:21:09;;;;;;;16.52;2.60;;;9.90;99.90;;;;;;5058097;28;20040;-75
2023/12/30 09:23:37;;;;;;;19.25;2.97;;;10.00;99.90;;;;;;5063187;28;20422;-75
2023/12/30 09:26:04;;;;;;;24.80;4.93;;;10.00;99.90;;;;;;5064830;28;20041;-75
2023/12/30 09:28:31;;;;;;;13.95;2.63;;;10.10;99.90;;;;;;5064404;28;20494;-76
2023/12/30 09:30:58;;;;;;;18.33;2.35;;;10.10;99.90;;;;;;5065389;28;20072;-76
2023/12/30 09:33:25;;;;;;;16.98;4.25;;;10.20;99.90;;;;;;5064033;28;20057;-76
2023/12/30 09:35:54;;;;;;;15.30;2.63;;;10.20;99.90;;;;;;5065390;28;20546;-74
2023/12/30 09:38:24;;;;;;;18.60;3.55;;;10.30;99.90;;;;;;5053798;28;20593;-75
2023/12/30 09:40:52;;;;;;;15.52;2.65;;;10.30;99.90;;;;;;5056678;28;20040;-76
2023/12/30 09:43:24;;;;;;;22.02;2.63;;;10.30;99.90;;;;;;5060428;28;20057;-77
2023/12/30 09:45:52;;;;;;;15.70;3.13;;;10.40;99.90;;;;;;5056548;28;20123;-76
2023/12/30 09:48:20;;;;;;;19.90;2.90;;;10.40;99.90;;;;;;5058154;28;20053;-72
2023/12/30 09:50:49;;;;;;;20.92;2.60;;;10.40;99.90;;;;;;5062855;28;20047;-75
2023/12/30 09:53:16;;;;;;;14.85;2.20;;;10.50;99.90;;;;;;5066414;28;20291;-77
2023/12/30 09:55:44;;;;;;;13.88;2.33;;;10.50;99.90;;;;;;5061566;28;20537;-74
2023/12/30 09:58:13;;;;;;;16.25;2.47;;;10.60;99.90;;;;;;5046081;28;20041;-74
2023/12/30 10:00:42;;;;;;;12.52;2.75;;;10.60;99.90;;;;;;5058380;28;20075;-76
2023/12/30 10:03:10;;;;;;;16.50;3.15;;;10.70;99.90;;;;;;5060134;28;20040;-76
2023/12/30 10:05:36;;;;;;;15.75;2.65;;;10.70;99.90;;;;;;5061225;28;20126;-77
2023/12/30 10:08:04;;;;;;;21.90;2.72;;;10.70;99.90;;;;;;5060034;28;20123;-77
2023/12/30 10:10:36;;;;;;;11.43;2.10;;;10.80;99.90;;;;;;5066500;28;20274;-74
2023/12/30 10:13:04;;;;;;;8.80;2.40;;;10.80;99.90;;;;;;5063027;28;20051;-74
2023/12/30 10:15:33;;;;;;;14.88;2.30;;;10.80;99.90;;;;;;5061879;28;20040;-74
2023/12/30 10:18:00;;;;;;;14.27;2.53;;;10.90;99.90;;;;;;5065607;28;20487;-75
2023/12/30 10:20:27;;;;;;;19.00;3.95;;;10.90;99.90;;;;;;5064553;28;20086;-76
2023/12/30 10:22:53;;;;;;;16.92;2.45;;;10.90;99.90;;;;;;5053156;28;20052;-75
2023/12/30 10:25:20;;;;;;;16.35;2.17;;;10.90;99.90;;;;;;5053450;28;20087;-75
2023/12/30 10:27:48;;;;;;;11.68;2.35;;;10.90;99.90;;;;;;5058585;28;20135;-75
2023/12/30 10:30:21;;;;;;;14.07;2.20;;;10.90;99.90;;;;;;5062847;28;20060;-75
2023/12/30 10:32:47;;;;;;;15.80;3.20;;;11.00;99.90;;;;;;5057412;28;20051;-76
2023/12/30 10:35:15;;;;;;;16.48;2.40;;;11.10;99.90;;;;;;5062492;28;20041;-77
2023/12/30 10:37:42;;;;;;;15.32;2.75;;;11.00;99.90;;;;;;5055671;28;20049;-77
2023/12/30 10:40:09;;;;;;;13.82;2.30;;;11.00;99.90;;;;;;5050500;28;20075;-77
2023/12/30 10:42:39;;;;;;;12.65;1.90;;;11.10;99.90;;;;;;5054967;28;20061;-78
2023/12/30 10:45:07;;;;;;;15.07;2.45;;;11.10;99.90;;;;;;5063314;28;20076;-77
2023/12/30 10:47:38;;;;;;;13.20;2.65;;;11.10;99.90;;;;;;5046605;28;20094;-78
2023/12/30 10:50:06;;;;;;;12.88;2.28;;;11.10;99.90;;;;;;5055135;28;20072;-78
2023/12/30 10:52:46;;;;;;;11.57;2.08;;;11.00;99.90;;;;;;5058392;28;20040;-77
2023/12/30 10:55:15;;;;;;;13.82;2.90;;;11.00;99.90;;;;;;5056080;28;20142;-76
2023/12/30 10:57:52;;;;;;;11.13;2.03;;;10.90;99.90;;;;;;5055616;28;20551;-77
2023/12/30 11:00:20;;;;;;;15.90;2.03;;;10.90;99.90;;;;;;5064037;28;20147;-77
2023/12/30 11:02:47;;;;;;;17.20;2.78;;;10.80;99.90;;;;;;5056664;28;20070;-77
2023/12/30 11:05:23;;;;;;;11.85;3.03;;;10.80;99.90;;;;;;5050295;28;20037;-76
2023/12/30 11:07:50;;;;;;;14.68;2.72;;;10.80;99.90;;;;;;5061810;28;20591;-75
2023/12/30 11:10:18;;;;;;;12.57;2.40;;;10.70;99.90;;;;;;5060763;28;20083;-74
2023/12/30 11:12:45;;;;;;;15.35;2.88;;;10.70;99.90;;;;;;5053409;28;20115;-72
2023/12/30 11:15:28;;;;;;;13.10;2.17;;;10.70;99.90;;;;;;5058201;28;20045;-75
2023/12/30 11:17:58;;;;;;;19.85;2.30;;;10.70;99.90;;;;;;5061129;28;20846;-73
2023/12/30 11:20:32;;;;;;;16.63;2.22;;;10.70;99.90;;;;;;5060717;28;20126;-72
2023/12/30 11:23:02;;;;;;;13.00;2.77;;;10.70;99.90;;;;;;5058184;28;20750;-70
2023/12/30 11:25:38;;;;;;;13.23;2.38;;;10.60;99.90;;;;;;5064121;28;20320;-68
2023/12/30 11:28:23;;;;;;;9.70;1.98;;;10.60;99.90;;;;;;5058142;28;20036;-69
2023/12/30 11:30:57;;;;;;;14.55;2.38;;;10.70;99.90;;;;;;5061851;28;20049;-68
2023/12/30 11:33:24;;;;;;;14.32;5.13;;;10.70;99.90;;;;;;5068150;28;20523;-69
2023/12/30 11:35:54;;;;;;;14.32;2.30;;;10.70;99.90;;;;;;5062919;28;20037;-68
2023/12/30 11:38:21;;;;;;;11.48;2.17;;;10.70;99.90;;;;;;5066003;28;20056;-69
2023/12/30 11:40:52;;;;;;;18.00;2.58;;;10.70;99.90;;;;;;5064078;28;20041;-68
2023/12/30 11:43:20;;;;;;;8.65;2.00;;;10.80;99.90;;;;;;5076352;28;20048;-69
2023/12/30 11:45:47;;;;;;;19.15;2.92;;;10.80;99.90;;;;;;5064318;28;20118;-68
2023/12/30 11:48:14;;;;;;;22.02;3.20;;;10.90;99.90;;;;;;5070538;28;20075;-68
2023/12/30 11:50:42;;;;;;;11.15;2.80;;;10.90;99.90;;;;;;5065987;28;20098;-68
2023/12/30 11:53:08;;;;;;;12.82;2.22;;;10.90;99.90;;;;;;5064995;28;20321;-68
2023/12/30 11:55:35;;;;;;;13.20;2.08;;;11.00;99.90;;;;;;5063775;28;20714;-70
2023/12/30 11:58:03;;;;;;;18.75;2.85;;;11.10;99.90;;;;;;5068326;28;20045;-67
2023/12/30 12:00:30;;;;;;;14.77;2.10;;;11.10;99.90;;;;;;5061621;28;20044;-69
2023/12/30 12:02:57;;;;;;;14.55;2.88;;;11.10;99.90;;;;;;5073076;28;20048;-69
2023/12/30 12:05:23;;;;;;;11.88;1.58;;;11.20;99.90;;;;;;5070182;28;20770;-68
2023/12/30 12:07:50;;;;;;;9.02;1.77;;;11.20;99.90;;;;;;5068195;28;20080;-69
2023/12/30 12:10:18;;;;;;;7.72;1.85;;;11.20;99.90;;;;;;5067579;28;20048;-69
2023/12/30 12:12:48;;;;;;;18.70;2.08;;;11.20;99.90;;;;;;5068602;28;20052;-69
2023/12/30 12:15:15;;;;;;;10.15;2.15;;;11.30;99.90;;;;;;5065821;28;20037;-71
2023/12/30 12:17:42;;;;;;;16.25;2.92;;;11.20;99.90;;;;;;5066446;28;20057;-71
2023/12/30 12:20:10;;;;;;;11.63;2.00;;;11.30;99.90;;;;;;5062995;28;20051;-67
2023/12/30 12:22:38;;;;;;;14.60;3.20;;;11.30;99.90;;;;;;5069399;28;20052;-68
2023/12/30 12:25:05;;;;;;;13.95;2.45;;;11.30;99.90;;;;;;5064745;28;20128;-68
2023/12/30 12:27:32;;;;;;;15.15;2.88;;;11.30;99.90;;;;;;5068799;28;20055;-69
2023/12/30 12:30:00;;;;;;;21.50;3.22;;;11.40;99.90;;;;;;5067014;28;20099;-68
2023/12/30 12:32:27;;;;;;;10.25;2.55;;;11.40;99.90;;;;;;5062904;28;20071;-68
2023/12/30 12:34:56;;;;;;;21.38;4.13;;;11.40;99.90;;;;;;5064235;28;20090;-68
2023/12/30 12:37:23;;;;;;;25.58;4.65;;;11.30;99.90;;;;;;5068367;28;20048;-68
2023/12/30 12:39:51;;;;;;;18.92;6.05;;;11.30;99.90;;;;;;5054994;28;20063;-68
2023/12/30 12:42:18;;;;;;;16.75;3.42;;;11.20;99.90;;;;;;5067618;28;20048;-67
2023/12/30 12:44:56;;;;;;;7.22;2.28;;;11.20;99.90;;;;;;5063499;28;20451;-69
2023/12/30 12:47:23;;;;;;;16.95;2.92;;;11.20;99.90;;;;;;5067649;28;20052;-69
2023/12/30 12:49:50;;;;;;;9.55;2.70;;;11.20;99.90;;;;;;5067442;28;20051;-68